createdAt,value
2022-08-18T00:02:05.699Z,6.97
2022-08-18T00:04:36.320Z,4.20
2022-08-18T00:07:12.149Z,5.45
2022-08-18T00:09:39.724Z,5.25
2022-08-18T00:12:12.794Z,4.72
2022-08-18T00:14:39.469Z,4.65
2022-08-18T00:17:06.069Z,7.05
2022-08-18T00:19:47.373Z,4.20
2022-08-18T00:22:18.906Z,5.40
2022-08-18T00:24:49.224Z,8.57
2022-08-18T00:27:28.325Z,3.95
2022-08-18T00:30:00.109Z,4.45
2022-08-18T00:32:29.774Z,5.30
2022-08-18T00:34:56.580Z,4.05
2022-08-18T00:37:23.906Z,5.93
2022-08-18T00:39:54.429Z,3.80
2022-08-18T00:42:29.087Z,4.95
2022-08-18T00:44:58.911Z,4.72
2022-08-18T00:47:41.254Z,4.75
2022-08-18T00:50:14.966Z,3.65
2022-08-18T00:52:44.824Z,5.15
2022-08-18T00:55:11.612Z,4.95
2022-08-18T00:57:38.832Z,4.57
2022-08-18T01:00:11.563Z,5.10
2022-08-18T01:02:45.348Z,3.88
2022-08-18T01:05:17.715Z,4.65
2022-08-18T01:07:46.432Z,4.10
2022-08-18T01:10:18.246Z,3.95
2022-08-18T01:12:48.106Z,4.72
2022-08-18T01:15:29.608Z,5.78
2022-08-18T01:18:20.753Z,3.83
2022-08-18T01:21:24.225Z,4.65
2022-08-18T01:23:52.790Z,5.78
2022-08-18T01:26:20.146Z,4.88
2022-08-18T01:28:49.457Z,4.95
2022-08-18T01:31:33.786Z,3.95
2022-08-18T01:34:01.190Z,4.38
2022-08-18T01:36:28.728Z,5.18
2022-08-18T01:38:55.336Z,6.00
2022-08-18T01:41:29.516Z,6.32
2022-08-18T01:44:00.893Z,6.15
2022-08-18T01:46:29.508Z,4.72
2022-08-18T01:48:58.642Z,4.38
2022-08-18T01:51:38.889Z,4.45
2022-08-18T01:54:11.968Z,4.50
2022-08-18T01:56:38.812Z,5.38
2022-08-18T01:59:07.019Z,4.63
2022-08-18T02:01:38.848Z,4.70
2022-08-18T02:04:33.931Z,4.60
2022-08-18T02:06:59.719Z,4.45
2022-08-18T02:09:26.297Z,4.30
2022-08-18T02:11:53.088Z,3.85
2022-08-18T02:14:27.087Z,4.05
2022-08-18T02:17:01.486Z,3.97
2022-08-18T02:19:33.719Z,3.63
2022-08-18T02:22:00.564Z,4.85
2022-08-18T02:24:27.211Z,4.22
2022-08-18T02:26:54.300Z,3.67
2022-08-18T02:29:20.878Z,4.85
2022-08-18T02:31:47.494Z,3.75
2022-08-18T02:34:15.920Z,4.22
2022-08-18T02:36:42.538Z,5.05
2022-08-18T02:39:09.131Z,4.57
2022-08-18T02:41:36.970Z,4.78
2022-08-18T02:44:04.887Z,3.67
2022-08-18T02:46:31.605Z,4.57
2022-08-18T02:49:00.026Z,3.40
2022-08-18T02:51:26.829Z,3.90
2022-08-18T02:53:54.158Z,3.35
2022-08-18T02:56:33.712Z,4.07
2022-08-18T02:59:13.104Z,3.47
2022-08-18T03:01:42.870Z,3.72
2022-08-18T03:04:14.224Z,3.80
2022-08-18T03:06:41.680Z,5.90
2022-08-18T03:09:10.293Z,4.00
2022-08-18T03:11:37.653Z,4.03
2022-08-18T03:14:11.274Z,3.75
2022-08-18T03:16:40.487Z,3.65
2022-08-18T03:19:19.230Z,3.92
2022-08-18T03:21:47.443Z,3.30
2022-08-18T03:24:19.346Z,3.50
2022-08-18T03:26:49.173Z,4.10
2022-08-18T03:29:15.804Z,2.72
2022-08-18T03:31:43.941Z,4.70
2022-08-18T03:34:11.048Z,3.40
2022-08-18T03:36:37.963Z,3.67
2022-08-18T03:39:07.269Z,4.20
2022-08-18T03:41:57.191Z,3.53
2022-08-18T03:44:23.345Z,3.45
2022-08-18T03:46:50.411Z,3.55
2022-08-18T03:49:18.160Z,4.88
2022-08-18T03:51:46.701Z,3.65
2022-08-18T03:54:16.427Z,3.08
2022-08-18T03:56:45.150Z,2.60
2022-08-18T03:59:16.983Z,3.83
2022-08-18T04:01:44.591Z,3.13
2022-08-18T04:04:13.687Z,3.28
2022-08-18T04:06:54.012Z,2.83
2022-08-18T04:09:22.250Z,3.15
2022-08-18T04:11:50.092Z,2.90
2022-08-18T04:14:20.536Z,3.05
2022-08-18T04:16:49.005Z,4.68
2022-08-18T04:19:23.060Z,2.80
2022-08-18T04:21:55.876Z,3.80
2022-08-18T04:24:22.478Z,3.58
2022-08-18T04:26:50.063Z,5.25
2022-08-18T04:29:18.249Z,3.35
2022-08-18T04:31:45.189Z,3.08
2022-08-18T04:34:12.471Z,3.55
2022-08-18T04:36:39.570Z,4.05
2022-08-18T04:39:08.289Z,3.00
2022-08-18T04:41:35.624Z,3.10
2022-08-18T04:44:06.371Z,3.50
2022-08-18T04:46:44.120Z,4.55
2022-08-18T04:49:11.244Z,3.92
2022-08-18T04:52:36.520Z,3.55
2022-08-18T04:54:29.540Z,3.20
2022-08-18T04:56:56.102Z,3.83
2022-08-18T04:59:22.661Z,3.13
2022-08-18T05:01:49.227Z,3.58
2022-08-18T05:04:17.239Z,2.83
2022-08-18T05:06:44.644Z,4.00
2022-08-18T05:09:13.142Z,3.22
2022-08-18T05:11:44.549Z,4.20
2022-08-18T05:14:11.710Z,3.88
2022-08-18T05:16:48.330Z,4.10
2022-08-18T05:19:22.041Z,3.55
2022-08-18T05:21:51.484Z,3.35
2022-08-18T05:24:19.192Z,2.95
2022-08-18T05:26:46.061Z,3.35
2022-08-18T05:29:18.957Z,5.15
2022-08-18T05:31:47.137Z,4.82
2022-08-18T05:34:13.809Z,3.90
2022-08-18T05:36:49.452Z,3.28
2022-08-18T05:39:24.248Z,3.53
2022-08-18T05:42:13.848Z,3.55
2022-08-18T05:44:42.936Z,4.70
2022-08-18T05:47:31.633Z,3.08
2022-08-18T05:50:07.465Z,5.50
2022-08-18T05:53:13.857Z,4.65
2022-08-18T05:56:05.113Z,4.75
2022-08-18T05:58:35.806Z,4.10
2022-08-18T06:01:25.181Z,4.57
2022-08-18T06:04:27.882Z,6.72
2022-08-18T06:06:57.361Z,3.63
2022-08-18T06:09:38.297Z,3.45
2022-08-18T06:12:17.393Z,4.13
2022-08-18T06:14:44.598Z,4.70
2022-08-18T06:17:22.711Z,4.80
2022-08-18T06:20:10.305Z,3.63
2022-08-18T06:22:57.424Z,3.35
2022-08-18T06:25:45.480Z,3.17
2022-08-18T06:28:15.787Z,3.50
2022-08-18T06:30:42.439Z,2.78
2022-08-18T06:33:31.705Z,3.97
2022-08-18T06:36:19.269Z,4.15
2022-08-18T06:38:59.081Z,4.25
2022-08-18T06:41:42.735Z,7.90
2022-08-18T06:44:24.496Z,3.97
2022-08-18T06:47:16.552Z,4.63
2022-08-18T06:49:48.674Z,8.13
2022-08-18T06:52:32.135Z,15.05
2022-08-18T06:57:27.528Z,11.77
2022-08-18T07:00:18.853Z,8.13
2022-08-18T07:02:59.121Z,9.40
2022-08-18T07:05:30.992Z,10.32
2022-08-18T07:08:10.097Z,7.50
2022-08-18T07:10:39.887Z,9.55
2022-08-18T07:13:16.571Z,6.60
2022-08-18T07:15:45.757Z,6.15
2022-08-18T07:18:13.386Z,6.50
2022-08-18T07:21:00.678Z,12.32
2022-08-18T07:23:38.659Z,9.52
2022-08-18T07:26:08.724Z,7.45
2022-08-18T07:28:50.189Z,6.90
2022-08-18T07:31:49.128Z,6.55
2022-08-18T07:34:25.961Z,8.25
2022-08-18T07:37:03.386Z,5.85
2022-08-18T07:39:48.447Z,8.38
2022-08-18T07:42:44.686Z,8.82
2022-08-18T07:45:23.905Z,8.18
2022-08-18T07:48:15.675Z,7.68
2022-08-18T07:51:03.106Z,7.57
2022-08-18T07:54:01.440Z,4.97
2022-08-18T07:56:49.110Z,8.70
2022-08-18T07:59:30.671Z,7.93
2022-08-18T08:02:22.044Z,7.45
2022-08-18T08:05:02.210Z,5.47
2022-08-18T08:07:32.259Z,6.80
2022-08-18T08:09:58.766Z,6.10
2022-08-18T08:12:31.406Z,5.40
2022-08-18T08:15:26.694Z,5.45
2022-08-18T08:18:35.412Z,4.82
2022-08-18T08:21:07.911Z,6.38
2022-08-18T08:23:52.448Z,5.28
2022-08-18T08:26:43.523Z,4.28
2022-08-18T08:29:49.244Z,4.25
2022-08-18T08:32:45.577Z,6.55
2022-08-18T08:35:50.159Z,4.45
2022-08-18T08:38:36.500Z,4.22
2022-08-18T08:41:05.689Z,6.88
2022-08-18T08:43:35.020Z,5.05
2022-08-18T08:46:21.521Z,7.15
2022-08-18T08:48:57.036Z,7.07
2022-08-18T08:51:56.870Z,4.60
2022-08-18T08:54:55.794Z,5.35
2022-08-18T08:57:34.325Z,5.60
2022-08-18T09:00:05.173Z,5.82
2022-08-18T09:02:49.889Z,6.80
2022-08-18T09:05:34.969Z,5.60
2022-08-18T09:08:19.026Z,6.07
2022-08-18T09:11:04.366Z,5.57
2022-08-18T09:13:58.164Z,4.28
2022-08-18T09:16:46.356Z,4.75
2022-08-18T09:19:42.533Z,4.70
2022-08-18T09:22:19.070Z,5.00
2022-08-18T09:24:51.038Z,5.20
2022-08-18T09:27:53.735Z,5.00
2022-08-18T09:30:57.356Z,3.40
2022-08-18T09:33:33.484Z,4.78
2022-08-18T09:36:47.845Z,5.43
2022-08-18T09:42:51.407Z,5.22
2022-08-18T09:45:33.270Z,4.72
2022-08-18T09:48:25.524Z,6.33
2022-08-18T09:51:10.346Z,4.05
2022-08-18T09:53:45.964Z,4.50
2022-08-18T09:56:19.751Z,4.70
2022-08-18T09:58:59.139Z,5.53
2022-08-18T10:01:36.611Z,3.95
2022-08-18T10:04:15.327Z,5.43
2022-08-18T10:06:48.429Z,5.15
2022-08-18T10:09:37.466Z,6.15
2022-08-18T10:12:19.326Z,4.63
2022-08-18T10:15:03.517Z,3.30
2022-08-18T10:20:32.364Z,5.20
2022-08-18T10:23:00.273Z,5.30
2022-08-18T10:25:35.521Z,4.57
2022-08-18T10:28:05.528Z,4.65
2022-08-18T10:30:36.391Z,3.83
2022-08-18T10:33:55.140Z,3.22
2022-08-18T10:36:44.016Z,4.05
2022-08-18T10:39:14.221Z,4.60
2022-08-18T10:42:02.940Z,4.05
2022-08-18T10:44:35.035Z,4.47
2022-08-18T10:47:02.228Z,3.40
2022-08-18T10:49:32.072Z,2.65
2022-08-18T10:52:45.493Z,6.90
2022-08-18T10:55:47.927Z,3.80
2022-08-18T10:58:21.262Z,4.07
2022-08-18T11:01:07.005Z,3.53
2022-08-18T11:03:51.025Z,3.85
2022-08-18T11:06:24.851Z,4.15
2022-08-18T11:08:57.557Z,4.47
2022-08-18T11:14:42.905Z,4.65
2022-08-18T11:17:54.035Z,2.28
2022-08-18T11:20:28.637Z,5.20
2022-08-18T11:22:59.102Z,4.28
2022-08-18T11:25:31.549Z,3.78
2022-08-18T11:27:59.456Z,3.93
2022-08-18T11:30:35.848Z,2.92
2022-08-18T11:33:04.078Z,3.67
2022-08-18T11:35:45.335Z,3.72
2022-08-18T11:38:13.797Z,2.50
2022-08-18T11:41:09.695Z,3.92
2022-08-18T11:46:40.908Z,4.20
2022-08-18T11:49:24.141Z,3.35
2022-08-18T11:54:50.481Z,2.17
2022-08-18T11:57:58.651Z,2.90
2022-08-18T12:00:47.486Z,3.40
2022-08-18T12:03:39.276Z,3.63
2022-08-18T12:06:26.578Z,2.17
2022-08-18T12:08:59.205Z,3.83
2022-08-18T12:11:35.410Z,2.47
2022-08-18T12:14:31.898Z,2.72
2022-08-18T12:17:01.924Z,2.97
2022-08-18T12:19:31.008Z,3.55
2022-08-18T12:21:59.571Z,4.05
2022-08-18T12:27:21.614Z,3.55
2022-08-18T12:29:50.438Z,2.70
2022-08-18T12:35:09.354Z,4.53
2022-08-18T12:40:24.420Z,3.10
2022-08-18T12:42:53.360Z,2.60
2022-08-18T12:45:23.351Z,3.45
2022-08-18T12:47:51.614Z,2.22
2022-08-18T12:50:19.596Z,2.20
2022-08-18T12:52:46.892Z,4.63
2022-08-18T12:55:21.370Z,3.17
2022-08-18T12:57:52.048Z,2.88
2022-08-18T13:00:21.218Z,2.85
2022-08-18T13:02:54.721Z,2.47
2022-08-18T13:05:26.358Z,2.25
2022-08-18T13:08:04.595Z,2.22
2022-08-18T13:10:43.065Z,4.40
2022-08-18T13:13:16.998Z,1.45
2022-08-18T13:15:58.122Z,1.88
2022-08-18T13:18:28.673Z,3.00
2022-08-18T13:20:59.346Z,2.25
2022-08-18T13:23:30.606Z,2.20
2022-08-18T13:25:59.553Z,3.60
2022-08-18T13:28:35.518Z,3.20
2022-08-18T13:31:05.307Z,2.60
2022-08-18T13:33:34.605Z,2.35
2022-08-18T13:36:19.688Z,2.50
2022-08-18T13:38:46.406Z,2.25
2022-08-18T13:41:15.611Z,2.53
2022-08-18T13:43:44.478Z,2.33
2022-08-18T13:46:14.214Z,2.38
2022-08-18T13:48:42.984Z,1.35
2022-08-18T13:51:14.214Z,2.60
2022-08-18T13:53:50.971Z,2.33
2022-08-18T13:56:31.354Z,2.28
2022-08-18T13:58:58.442Z,2.80
2022-08-18T14:01:44.333Z,1.85
2022-08-18T14:04:15.046Z,2.42
2022-08-18T14:06:51.090Z,2.83
2022-08-18T14:09:36.753Z,1.35
2022-08-18T14:12:15.735Z,2.88
2022-08-18T14:14:52.141Z,3.08
2022-08-18T14:17:19.235Z,2.92
2022-08-18T14:20:04.674Z,3.45
2022-08-18T14:22:49.646Z,2.45
2022-08-18T14:25:35.059Z,2.08
2022-08-18T14:28:04.165Z,2.28
2022-08-18T14:30:31.578Z,3.45
2022-08-18T14:32:59.395Z,2.17
2022-08-18T14:36:03.816Z,3.03
2022-08-18T14:38:15.307Z,2.17
2022-08-18T14:40:44.414Z,2.15
2022-08-18T14:43:14.197Z,2.15
2022-08-18T14:45:47.410Z,2.63
2022-08-18T14:48:20.541Z,2.15
2022-08-18T14:50:50.325Z,2.85
2022-08-18T14:53:22.407Z,2.92
2022-08-18T14:55:52.495Z,1.75
2022-08-18T14:58:20.909Z,1.70
2022-08-18T15:00:49.716Z,1.73
2022-08-18T15:03:21.439Z,2.92
2022-08-18T15:05:54.986Z,2.00
2022-08-18T15:10:54.137Z,2.23
2022-08-18T15:13:21.616Z,1.20
2022-08-18T15:15:53.688Z,3.43
2022-08-18T15:18:22.408Z,2.58
2022-08-18T15:21:35.816Z,2.17
2022-08-18T15:24:25.298Z,2.00
2022-08-18T15:26:57.427Z,1.52
2022-08-18T15:29:29.311Z,2.20
2022-08-18T15:32:05.069Z,2.17
2022-08-18T15:34:46.123Z,3.13
2022-08-18T15:37:14.507Z,1.70
2022-08-18T15:39:41.119Z,2.00
2022-08-18T15:42:10.507Z,2.15
2022-08-18T15:44:38.105Z,2.72
2022-08-18T15:47:05.279Z,2.17
2022-08-18T15:49:36.055Z,1.83
2022-08-18T15:52:02.713Z,2.47
2022-08-18T15:54:29.415Z,2.42
2022-08-18T15:56:58.384Z,3.28
2022-08-18T15:59:34.173Z,3.13
2022-08-18T16:02:11.848Z,2.42
2022-08-18T16:04:41.240Z,4.25
2022-08-18T16:07:09.984Z,2.30
2022-08-18T16:09:36.864Z,2.08
2022-08-18T16:12:03.983Z,1.35
2022-08-18T16:14:31.545Z,1.00
2022-08-18T16:16:58.108Z,1.70
2022-08-18T16:19:25.737Z,2.58
2022-08-18T16:21:55.080Z,1.55
2022-08-18T16:24:21.866Z,2.55
2022-08-18T16:26:48.483Z,2.42
2022-08-18T16:29:15.244Z,2.65
2022-08-18T16:31:41.935Z,2.47
2022-08-18T16:34:09.378Z,2.60
2022-08-18T16:36:36.334Z,2.67
2022-08-18T16:39:03.372Z,2.15
2022-08-18T16:41:31.744Z,1.23
2022-08-18T16:43:58.344Z,2.47
2022-08-18T16:46:27.051Z,3.03
2022-08-18T16:48:57.879Z,1.85
2022-08-18T16:51:26.226Z,2.03
2022-08-18T16:53:53.598Z,2.58
2022-08-18T16:56:25.871Z,2.88
2022-08-18T16:59:11.587Z,1.80
2022-08-18T17:01:57.188Z,1.70
2022-08-18T17:04:28.709Z,1.85
2022-08-18T17:06:56.284Z,2.00
2022-08-18T17:09:23.560Z,2.17
2022-08-18T17:11:51.419Z,2.42
2022-08-18T17:14:19.763Z,3.40
2022-08-18T17:16:48.396Z,3.85
2022-08-18T17:19:15.015Z,3.15
2022-08-18T17:21:41.631Z,2.65
2022-08-18T17:24:10.522Z,4.35
2022-08-18T17:26:44.107Z,2.67
2022-08-18T17:31:57.839Z,2.88
2022-08-18T17:34:32.076Z,2.65
2022-08-18T17:36:59.205Z,3.55
2022-08-18T17:39:32.278Z,2.58
2022-08-18T17:44:52.399Z,2.53
2022-08-18T17:47:25.989Z,2.50
2022-08-18T17:50:28.086Z,4.45
2022-08-18T17:53:07.800Z,2.45
2022-08-18T17:55:41.555Z,3.63
2022-08-18T17:58:49.416Z,2.80
2022-08-18T18:01:16.172Z,3.10
2022-08-18T18:03:43.821Z,2.55
2022-08-18T18:06:18.292Z,2.38
2022-08-18T18:09:12.256Z,3.20
2022-08-18T18:11:42.811Z,1.75
2022-08-18T18:14:24.248Z,2.45
2022-08-18T18:17:17.661Z,1.42
2022-08-18T18:19:55.696Z,1.48
2022-08-18T18:22:24.161Z,2.08
2022-08-18T18:24:58.569Z,1.58
2022-08-18T18:27:32.030Z,1.98
2022-08-18T18:30:06.193Z,2.63
2022-08-18T18:32:48.998Z,2.40
2022-08-18T18:35:53.055Z,1.95
2022-08-18T18:38:29.118Z,2.25
2022-08-18T18:40:55.680Z,2.13
2022-08-18T18:43:27.156Z,1.60
2022-08-18T18:46:05.000Z,1.08
2022-08-18T18:48:51.453Z,1.38
2022-08-18T18:51:39.706Z,2.70
2022-08-18T18:54:24.120Z,1.65
2022-08-18T18:56:58.960Z,1.23
2022-08-18T19:00:09.564Z,1.13
2022-08-18T19:03:14.295Z,2.25
2022-08-18T19:06:03.413Z,2.03
2022-08-18T19:08:48.847Z,1.95
2022-08-18T19:11:17.295Z,2.85
2022-08-18T19:13:49.497Z,2.28
2022-08-18T19:16:41.708Z,2.63
2022-08-18T19:19:51.362Z,1.58
2022-08-18T19:22:32.719Z,1.90
2022-08-18T19:25:17.029Z,2.03
2022-08-18T19:27:49.785Z,1.58
2022-08-18T19:30:18.374Z,2.67
2022-08-18T19:32:48.365Z,2.25
2022-08-18T19:35:19.755Z,2.80
2022-08-18T19:38:04.422Z,1.75
2022-08-18T19:40:44.953Z,2.05
2022-08-18T19:43:17.354Z,1.50
2022-08-18T19:45:53.547Z,1.90
2022-08-18T19:48:31.748Z,1.27
2022-08-18T19:51:06.038Z,3.00
2022-08-18T19:53:44.310Z,1.85
2022-08-18T19:56:35.664Z,1.55
2022-08-18T19:59:21.477Z,1.25
2022-08-18T20:02:18.908Z,1.20
2022-08-18T20:05:10.009Z,1.15
2022-08-18T20:07:42.205Z,1.95
2022-08-18T20:10:15.977Z,2.22
2022-08-18T20:12:57.673Z,3.10
2022-08-18T20:15:26.999Z,2.58
2022-08-18T20:18:12.099Z,1.60
2022-08-18T20:20:38.768Z,1.92
2022-08-18T20:23:34.296Z,1.73
2022-08-18T20:26:01.324Z,2.08
2022-08-18T20:28:37.337Z,2.47
2022-08-18T20:31:12.791Z,2.42
2022-08-18T20:34:04.028Z,3.83
2022-08-18T20:36:36.442Z,2.00
2022-08-18T20:39:32.285Z,2.23
2022-08-18T20:42:04.109Z,1.48
2022-08-18T20:44:46.134Z,2.08
2022-08-18T20:47:42.940Z,1.15
2022-08-18T20:51:13.552Z,2.90
2022-08-18T20:54:03.303Z,2.17
2022-08-18T20:56:46.989Z,2.60
2022-08-18T20:59:18.352Z,1.73
2022-08-18T21:01:56.730Z,2.75
2022-08-18T21:04:41.304Z,2.42
2022-08-18T21:07:17.089Z,2.58
2022-08-18T21:09:52.506Z,2.90
2022-08-18T21:12:24.308Z,2.28
2022-08-18T21:14:54.329Z,1.77
2022-08-18T21:17:24.339Z,2.38
2022-08-18T21:19:51.012Z,2.15
2022-08-18T21:22:19.476Z,2.30
2022-08-18T21:24:50.474Z,2.10
2022-08-18T21:27:26.898Z,2.20
2022-08-18T21:29:59.043Z,2.40
2022-08-18T21:32:31.747Z,2.00
2022-08-18T21:35:10.541Z,1.17
2022-08-18T21:37:40.649Z,1.23
2022-08-18T21:40:07.844Z,2.50
2022-08-18T21:42:45.521Z,2.00
2022-08-18T21:45:21.945Z,1.50
2022-08-18T21:47:54.524Z,1.80
2022-08-18T21:50:26.851Z,3.75
2022-08-18T21:52:57.776Z,1.00
2022-08-18T21:55:40.271Z,1.77
2022-08-18T21:58:32.959Z,1.40
2022-08-18T22:01:19.823Z,1.23
2022-08-18T22:03:55.605Z,1.98
2022-08-18T22:06:34.383Z,2.08
2022-08-18T22:09:30.507Z,1.98
2022-08-18T22:12:43.183Z,2.22
2022-08-18T22:15:11.959Z,2.00
2022-08-18T22:17:58.199Z,1.80
2022-08-18T22:20:41.988Z,1.77
2022-08-18T22:23:41.635Z,2.20
2022-08-18T22:26:17.158Z,2.42
2022-08-18T22:29:01.681Z,2.67
2022-08-18T22:31:31.603Z,3.30
2022-08-18T22:34:06.337Z,2.42
2022-08-18T22:36:38.990Z,1.77
2022-08-18T22:39:08.678Z,1.95
2022-08-18T22:41:35.546Z,2.38
2022-08-18T22:44:05.470Z,1.08
2022-08-18T22:46:33.530Z,1.85
2022-08-18T22:49:00.216Z,1.70
2022-08-18T22:51:28.041Z,1.35
2022-08-18T22:53:56.954Z,1.73
2022-08-18T22:56:35.099Z,2.15
2022-08-18T22:59:13.583Z,1.20
2022-08-18T23:01:45.561Z,1.90
2022-08-18T23:04:12.512Z,1.83
2022-08-18T23:06:39.126Z,1.52
2022-08-18T23:09:05.774Z,1.70
2022-08-18T23:11:32.386Z,2.50
2022-08-18T23:14:02.261Z,1.98
2022-08-18T23:16:31.954Z,3.00
2022-08-18T23:19:02.000Z,2.30
2022-08-18T23:21:34.029Z,1.67
2022-08-18T23:24:03.638Z,2.08
2022-08-18T23:26:30.548Z,1.38
2022-08-18T23:28:57.603Z,1.42
2022-08-18T23:31:24.277Z,1.45
2022-08-18T23:33:51.398Z,2.17
2022-08-18T23:36:18.059Z,1.95
2022-08-18T23:38:44.803Z,2.03
2022-08-18T23:41:12.487Z,1.60
2022-08-18T23:43:39.173Z,1.48
2022-08-18T23:46:06.228Z,2.13
2022-08-18T23:48:32.810Z,2.55
2022-08-18T23:51:02.848Z,1.52
2022-08-18T23:53:31.125Z,1.75
2022-08-18T23:55:57.780Z,1.58
2022-08-18T23:58:24.581Z,0.90
